createdAt,value
2018-09-14T00:04:11.915Z,6.40
2018-09-14T00:09:10.877Z,6.27
2018-09-14T00:14:05.406Z,6.97
2018-09-14T00:18:59.972Z,7.80
2018-09-14T00:23:54.480Z,8.70
2018-09-14T00:28:49.370Z,7.13
2018-09-14T00:33:43.869Z,7.87
2018-09-14T00:38:38.399Z,9.17
2018-09-14T00:43:32.911Z,8.00
2018-09-14T00:48:27.456Z,6.77
2018-09-14T00:53:22.045Z,7.73
2018-09-14T00:58:16.610Z,6.90
2018-09-14T01:03:11.213Z,6.20
2018-09-14T01:08:05.810Z,6.90
2018-09-14T01:13:03.091Z,8.23
2018-09-14T01:17:57.841Z,7.70
2018-09-14T01:22:52.414Z,11.30
2018-09-14T01:27:46.997Z,7.77
2018-09-14T01:32:41.610Z,8.37
2018-09-14T01:37:36.161Z,7.50
2018-09-14T01:42:30.805Z,9.90
2018-09-14T01:47:25.313Z,8.57
2018-09-14T01:52:19.906Z,10.90
2018-09-14T01:57:14.442Z,15.17
2018-09-14T02:02:09.051Z,11.13
2018-09-14T02:07:03.580Z,12.20
2018-09-14T02:11:58.124Z,12.17
2018-09-14T02:16:52.647Z,14.20
2018-09-14T02:21:47.257Z,14.53
2018-09-14T02:26:41.788Z,13.37
2018-09-14T02:31:36.350Z,13.83
2018-09-14T02:36:30.864Z,10.37
2018-09-14T02:41:25.400Z,13.27
2018-09-14T02:46:19.965Z,12.53
2018-09-14T02:51:14.500Z,10.63
2018-09-14T02:56:09.077Z,10.60
2018-09-14T03:01:03.605Z,11.47
2018-09-14T03:05:58.197Z,10.87
2018-09-14T03:10:52.788Z,11.03
2018-09-14T03:15:47.437Z,10.33
2018-09-14T03:20:42.092Z,11.90
2018-09-14T03:25:36.645Z,10.43
2018-09-14T03:30:31.175Z,9.23
2018-09-14T03:35:25.764Z,10.10
2018-09-14T03:40:20.404Z,12.40
2018-09-14T03:45:15.190Z,10.40
2018-09-14T03:50:09.798Z,11.27
2018-09-14T03:55:04.354Z,11.03
2018-09-14T03:59:58.922Z,12.50
2018-09-14T04:04:53.533Z,11.73
2018-09-14T04:09:48.045Z,12.23
2018-09-14T04:14:42.597Z,11.30
2018-09-14T04:19:37.165Z,10.40
2018-09-14T04:24:31.742Z,10.80
2018-09-14T04:29:26.341Z,11.73
2018-09-14T04:34:20.869Z,11.23
2018-09-14T04:39:15.373Z,13.40
2018-09-14T04:44:09.933Z,12.20
2018-09-14T04:49:04.592Z,14.00
2018-09-14T04:53:59.289Z,13.87
2018-09-14T04:58:53.893Z,12.50
2018-09-14T05:03:48.537Z,11.87
2018-09-14T05:08:43.270Z,15.80
2018-09-14T05:13:37.811Z,11.70
2018-09-14T05:18:32.428Z,12.63
2018-09-14T05:23:27.389Z,14.17
2018-09-14T05:28:21.917Z,11.47
2018-09-14T05:33:16.501Z,11.13
2018-09-14T05:38:11.974Z,14.60
2018-09-14T05:43:06.557Z,12.47
2018-09-14T05:48:01.286Z,10.60
2018-09-14T05:52:56.061Z,6.13
2018-09-14T05:57:50.949Z,6.67
2018-09-14T06:02:45.492Z,7.73
2018-09-14T06:07:40.054Z,8.13
2018-09-14T06:12:35.556Z,9.33
2018-09-14T06:17:30.029Z,5.57
2018-09-14T06:22:24.684Z,5.67
2018-09-14T06:27:19.112Z,5.37
2018-09-14T06:32:13.636Z,6.53
2018-09-14T06:37:10.050Z,5.43
2018-09-14T06:42:07.155Z,9.20
2018-09-14T06:47:01.924Z,7.07
2018-09-14T06:52:00.571Z,8.87
2018-09-14T06:57:06.756Z,9.07
2018-09-14T07:02:04.740Z,7.50
2018-09-14T07:07:08.365Z,9.53
2018-09-14T07:12:03.102Z,8.47
2018-09-14T07:16:57.764Z,8.57
2018-09-14T07:22:09.680Z,10.50
2018-09-14T07:27:08.250Z,9.50
2018-09-14T07:32:03.021Z,10.90
2018-09-14T07:36:57.994Z,10.07
2018-09-14T07:41:52.809Z,7.73
2018-09-14T07:46:51.030Z,10.30
2018-09-14T07:51:46.873Z,8.07
2018-09-14T07:56:41.439Z,6.93
2018-09-14T08:01:36.171Z,6.97
2018-09-14T08:06:38.187Z,7.50
2018-09-14T08:11:32.954Z,8.17
2018-09-14T08:16:28.494Z,7.33
2018-09-14T08:21:23.556Z,11.10
2018-09-14T08:26:18.334Z,6.23
2018-09-14T08:31:12.971Z,6.03
2018-09-14T08:36:13.644Z,6.30
2018-09-14T08:41:08.488Z,7.77
2018-09-14T08:46:06.092Z,7.23
2018-09-14T08:51:01.830Z,7.03
2018-09-14T08:55:56.840Z,4.47
2018-09-14T09:00:52.013Z,7.45
2018-09-14T09:05:47.168Z,6.60
2018-09-14T09:10:42.248Z,6.17
2018-09-14T09:15:37.169Z,6.15
2018-09-14T09:20:32.025Z,8.38
2018-09-14T09:25:27.162Z,7.12
2018-09-14T09:30:24.253Z,4.40
2018-09-14T09:35:19.000Z,5.90
2018-09-14T09:40:14.428Z,8.43
2018-09-14T09:45:16.067Z,9.33
2018-09-14T09:50:11.988Z,5.35
2018-09-14T09:55:06.949Z,5.53
2018-09-14T10:00:02.369Z,5.40
2018-09-14T10:05:04.816Z,5.70
2018-09-14T10:09:59.468Z,4.08
2018-09-14T10:14:54.195Z,4.15
2018-09-14T10:19:49.022Z,3.92
2018-09-14T10:24:43.620Z,4.47
2018-09-14T10:29:38.278Z,5.08
2018-09-14T10:34:33.746Z,5.17
2018-09-14T10:39:28.388Z,4.05
2018-09-14T10:44:22.952Z,4.03
2018-09-14T10:49:17.533Z,5.40
2018-09-14T10:54:13.374Z,5.85
2018-09-14T10:59:09.290Z,4.00
2018-09-14T11:04:06.877Z,8.43
2018-09-14T11:09:01.584Z,3.85
2018-09-14T11:13:57.017Z,3.10
2018-09-14T11:19:02.276Z,3.52
2018-09-14T11:23:57.150Z,3.67
2018-09-14T11:28:53.556Z,3.47
2018-09-14T11:33:48.187Z,3.67
2018-09-14T11:38:42.792Z,4.03
2018-09-14T11:43:38.731Z,5.72
2018-09-14T11:48:33.811Z,5.55
2018-09-14T11:53:28.514Z,4.03
2018-09-14T11:58:23.065Z,10.58
2018-09-14T12:03:17.642Z,6.22
2018-09-14T12:08:12.286Z,3.62
2018-09-14T12:13:08.509Z,3.62
2018-09-14T12:18:03.141Z,4.28
2018-09-14T12:22:57.655Z,3.72
2018-09-14T12:27:52.197Z,3.75
2018-09-14T12:32:51.009Z,3.72
2018-09-14T12:37:48.676Z,5.08
2018-09-14T12:42:46.796Z,4.83
2018-09-14T12:47:41.466Z,3.52
2018-09-14T12:52:36.042Z,2.98
2018-09-14T12:57:30.816Z,3.70
2018-09-14T13:02:25.612Z,3.02
2018-09-14T13:07:20.727Z,3.85
2018-09-14T13:12:15.958Z,2.77
2018-09-14T13:17:13.376Z,2.67
2018-09-14T13:22:08.735Z,3.90
2018-09-14T13:27:04.033Z,2.98
2018-09-14T13:31:59.095Z,2.50
2018-09-14T13:36:54.054Z,2.50
2018-09-14T13:41:52.117Z,2.50
2018-09-14T13:46:47.683Z,3.80
2018-09-14T13:51:42.478Z,2.70
2018-09-14T13:56:37.415Z,2.60
2018-09-14T14:01:33.284Z,2.67
2018-09-14T14:06:27.822Z,2.40
2018-09-14T14:11:23.408Z,3.02
2018-09-14T14:16:18.143Z,2.22
2018-09-14T14:21:13.504Z,2.45
2018-09-14T14:26:08.102Z,2.83
2018-09-14T14:31:03.266Z,3.00
2018-09-14T14:35:58.347Z,4.20
2018-09-14T14:40:58.562Z,3.35
2018-09-14T14:45:53.585Z,2.55
2018-09-14T14:50:48.352Z,3.00
2018-09-14T14:55:43.890Z,2.77
2018-09-14T15:00:38.537Z,4.25
2018-09-14T15:05:33.106Z,2.60
2018-09-14T15:10:27.902Z,3.45
2018-09-14T15:15:22.480Z,2.40
2018-09-14T15:20:17.352Z,2.98
2018-09-14T15:25:11.945Z,2.52
2018-09-14T15:30:06.599Z,5.12
2018-09-14T15:35:01.207Z,4.03
2018-09-14T15:39:55.777Z,3.17
2018-09-14T15:44:50.570Z,2.60
2018-09-14T15:49:45.306Z,3.35
2018-09-14T15:54:40.285Z,3.05
2018-09-14T15:59:35.080Z,2.52
2018-09-14T16:04:29.654Z,3.67
2018-09-14T16:09:24.273Z,3.20
2018-09-14T16:14:18.823Z,2.98
2018-09-14T16:19:13.361Z,2.72
2018-09-14T16:24:08.152Z,3.08
2018-09-14T16:29:02.712Z,3.85
2018-09-14T16:33:57.336Z,3.52
2018-09-14T16:38:51.901Z,3.20
2018-09-14T16:43:46.516Z,3.83
2018-09-14T16:48:41.160Z,3.25
2018-09-14T16:53:35.907Z,4.05
2018-09-14T16:58:30.689Z,2.98
2018-09-14T17:03:25.518Z,3.50
2018-09-14T17:08:20.041Z,3.60
2018-09-14T17:13:14.602Z,3.87
2018-09-14T17:18:10.040Z,3.20
2018-09-14T17:23:04.677Z,7.95
2018-09-14T17:27:59.244Z,3.72
2018-09-14T17:32:53.800Z,3.20
2018-09-14T17:37:48.442Z,3.55
2018-09-14T17:42:43.117Z,3.98
2018-09-14T17:47:37.677Z,3.05
2018-09-14T17:52:32.210Z,3.77
2018-09-14T17:57:26.802Z,4.83
2018-09-14T18:02:21.529Z,3.67
2018-09-14T18:07:16.104Z,5.03
2018-09-14T18:12:10.716Z,3.53
2018-09-14T18:17:05.327Z,5.13
2018-09-14T18:21:59.984Z,4.37
2018-09-14T18:26:54.472Z,4.10
2018-09-14T18:31:49.051Z,5.47
2018-09-14T18:36:43.577Z,5.13
2018-09-14T18:41:38.340Z,5.83
2018-09-14T18:46:32.930Z,7.80
2018-09-14T18:51:27.481Z,6.17
2018-09-14T18:56:22.124Z,5.03
2018-09-14T19:01:16.729Z,5.07
2018-09-14T19:06:11.270Z,5.60
2018-09-14T19:11:05.859Z,5.17
2018-09-14T19:16:00.461Z,5.60
2018-09-14T19:20:55.043Z,5.20
2018-09-14T19:25:49.954Z,5.53
2018-09-14T19:30:44.568Z,7.17
2018-09-14T19:35:39.120Z,5.53
2018-09-14T19:40:33.732Z,6.07
2018-09-14T19:45:28.524Z,5.97
2018-09-14T19:50:23.106Z,5.53
2018-09-14T19:55:17.652Z,7.33
2018-09-14T20:00:12.212Z,8.33
2018-09-14T20:05:07.049Z,7.13
2018-09-14T20:10:01.632Z,6.20
2018-09-14T20:14:56.254Z,5.60
2018-09-14T20:19:51.042Z,5.67
2018-09-14T20:24:45.578Z,5.30
2018-09-14T20:29:40.097Z,6.00
2018-09-14T20:34:34.760Z,5.13
2018-09-14T20:39:29.368Z,5.63
2018-09-14T20:44:23.943Z,4.93
2018-09-14T20:49:18.540Z,6.93
2018-09-14T20:54:13.169Z,6.80
2018-09-14T20:59:07.741Z,6.13
2018-09-14T21:04:02.444Z,6.63
2018-09-14T21:08:57.013Z,5.63
2018-09-14T21:13:51.764Z,6.63
2018-09-14T21:18:46.296Z,5.70
2018-09-14T21:23:40.850Z,5.93
2018-09-14T21:28:35.779Z,8.53
2018-09-14T21:33:30.332Z,6.60
2018-09-14T21:38:24.968Z,8.13
2018-09-14T21:43:19.525Z,7.17
2018-09-14T21:48:14.146Z,9.33
2018-09-14T21:53:08.819Z,8.73
2018-09-14T21:58:03.425Z,6.90
2018-09-14T22:02:57.998Z,6.77
2018-09-14T22:07:52.537Z,7.53
2018-09-14T22:12:47.066Z,10.23
2018-09-14T22:17:41.585Z,8.47
2018-09-14T22:22:36.167Z,9.63
2018-09-14T22:27:30.719Z,7.57
2018-09-14T22:32:25.281Z,7.60
2018-09-14T22:37:19.811Z,8.83
2018-09-14T22:42:14.467Z,6.33
2018-09-14T22:47:09.207Z,8.90
2018-09-14T22:52:03.809Z,9.37
2018-09-14T22:56:58.331Z,9.30
2018-09-14T23:01:53.337Z,11.60
2018-09-14T23:06:48.500Z,11.03
2018-09-14T23:11:43.046Z,6.83
2018-09-14T23:16:37.609Z,6.47
2018-09-14T23:21:32.177Z,7.97
2018-09-14T23:26:27.425Z,7.03
2018-09-14T23:31:21.975Z,7.10
2018-09-14T23:36:16.543Z,8.27
2018-09-14T23:41:11.115Z,8.10
2018-09-14T23:46:05.632Z,8.73
2018-09-14T23:51:00.252Z,8.40
2018-09-14T23:55:54.888Z,8.90
